createdAt,value
2023-03-14T00:00:14.961Z,4.45
2023-03-14T00:02:41.783Z,4.68
2023-03-14T00:05:09.287Z,5.47
2023-03-14T00:07:37.463Z,4.80
2023-03-14T00:10:09.323Z,5.37
2023-03-14T00:12:36.190Z,5.57
2023-03-14T00:15:04.523Z,4.93
2023-03-14T00:17:31.746Z,4.87
2023-03-14T00:19:58.412Z,4.95
2023-03-14T00:22:25.054Z,3.90
2023-03-14T00:24:51.663Z,5.30
2023-03-14T00:27:18.244Z,5.00
2023-03-14T00:29:45.072Z,4.62
2023-03-14T00:32:11.800Z,5.80
2023-03-14T00:34:38.529Z,4.70
2023-03-14T00:37:05.277Z,5.28
2023-03-14T00:39:31.877Z,6.03
2023-03-14T00:41:58.584Z,4.90
2023-03-14T00:44:25.846Z,7.35
2023-03-14T00:46:52.535Z,5.03
2023-03-14T00:49:19.157Z,4.78
2023-03-14T00:51:45.765Z,5.05
2023-03-14T00:54:12.794Z,4.80
2023-03-14T00:56:39.364Z,5.32
2023-03-14T00:59:05.953Z,5.57
2023-03-14T01:01:32.594Z,4.62
2023-03-14T01:03:59.265Z,4.28
2023-03-14T01:06:27.092Z,6.78
2023-03-14T01:08:54.014Z,6.12
2023-03-14T01:11:22.734Z,5.30
2023-03-14T01:13:49.570Z,5.90
2023-03-14T01:16:16.458Z,4.20
2023-03-14T01:18:44.684Z,5.75
2023-03-14T01:21:21.846Z,5.20
2023-03-14T01:23:48.844Z,4.00
2023-03-14T01:26:17.798Z,4.10
2023-03-14T01:28:44.373Z,5.97
2023-03-14T01:31:11.247Z,5.85
2023-03-14T01:33:37.984Z,5.22
2023-03-14T01:36:05.131Z,5.60
2023-03-14T01:38:32.590Z,7.40
2023-03-14T02:26:23.991Z,6.05
2023-03-14T02:28:51.037Z,6.78
2023-03-14T02:31:17.786Z,7.37
2023-03-14T02:33:44.443Z,6.12
2023-03-14T02:36:13.363Z,6.60
2023-03-14T02:39:13.131Z,5.95
2023-03-14T02:41:39.724Z,5.70
2023-03-14T02:44:06.315Z,5.40
2023-03-14T02:46:32.884Z,5.65
2023-03-14T02:49:02.956Z,5.65
2023-03-14T02:51:29.646Z,5.82
2023-03-14T02:53:56.297Z,5.93
2023-03-14T02:56:22.973Z,5.00
2023-03-14T02:58:49.582Z,6.00
2023-03-14T03:01:16.184Z,7.37
2023-03-14T03:03:42.918Z,5.32
2023-03-14T03:06:09.617Z,6.68
2023-03-14T03:08:36.257Z,5.75
2023-03-14T03:11:02.941Z,5.70
2023-03-14T03:13:29.556Z,5.70
2023-03-14T03:15:56.160Z,5.15
2023-03-14T03:18:22.833Z,5.28
2023-03-14T03:20:49.474Z,6.60
2023-03-14T03:23:16.114Z,6.93
2023-03-14T03:25:42.765Z,6.07
2023-03-14T03:28:09.364Z,7.45
2023-03-14T03:30:40.237Z,6.78
2023-03-14T03:33:06.904Z,6.05
2023-03-14T03:35:33.698Z,5.40
2023-03-14T03:38:00.328Z,5.87
2023-03-14T03:40:27.202Z,5.85
2023-03-14T03:42:53.895Z,6.97
2023-03-14T03:45:20.500Z,5.82
2023-03-14T03:47:47.201Z,5.62
2023-03-14T03:50:13.871Z,5.43
2023-03-14T03:52:40.531Z,7.22
2023-03-14T03:55:07.526Z,5.37
2023-03-14T03:57:34.158Z,6.15
2023-03-14T04:00:00.755Z,6.65
2023-03-14T04:02:27.496Z,5.70
2023-03-14T04:04:54.216Z,6.10
2023-03-14T04:07:21.138Z,6.15
2023-03-14T04:09:47.764Z,5.35
2023-03-14T04:12:14.394Z,4.90
2023-03-14T04:14:42.105Z,7.45
2023-03-14T04:17:08.969Z,5.57
2023-03-14T04:19:35.612Z,6.07
2023-03-14T04:22:02.228Z,5.65
2023-03-14T04:24:28.819Z,5.82
2023-03-14T04:26:55.421Z,7.10
2023-03-14T04:29:22.125Z,6.28
2023-03-14T04:31:48.695Z,4.78
2023-03-14T04:34:15.285Z,5.37
2023-03-14T04:36:41.922Z,5.25
2023-03-14T04:39:08.997Z,5.82
2023-03-14T04:41:35.660Z,5.70
2023-03-14T04:44:02.274Z,5.95
2023-03-14T04:46:28.915Z,5.85
2023-03-14T04:48:57.636Z,5.80
2023-03-14T04:51:28.182Z,5.75
2023-03-14T04:53:55.665Z,4.82
2023-03-14T04:56:22.341Z,6.45
2023-03-14T04:58:48.963Z,7.32
2023-03-14T05:01:15.641Z,5.85
2023-03-14T05:03:42.291Z,5.62
2023-03-14T05:06:09.248Z,6.10
2023-03-14T05:08:35.792Z,5.70
2023-03-14T05:11:03.864Z,5.47
2023-03-14T05:13:30.463Z,6.60
2023-03-14T05:16:05.106Z,5.97
2023-03-14T05:18:31.814Z,6.22
2023-03-14T05:20:58.520Z,6.75
2023-03-14T05:23:25.127Z,5.15
2023-03-14T05:25:51.921Z,5.57
2023-03-14T05:28:18.571Z,5.85
2023-03-14T05:30:45.161Z,5.60
2023-03-14T05:33:11.784Z,5.60
2023-03-14T05:35:38.486Z,6.05
2023-03-14T05:38:05.146Z,6.15
2023-03-14T05:40:31.766Z,5.65
2023-03-14T05:42:58.361Z,5.10
2023-03-14T05:45:25.022Z,5.70
2023-03-14T05:47:51.583Z,5.70
2023-03-14T05:50:18.215Z,6.25
2023-03-14T05:52:44.800Z,5.60
2023-03-14T05:55:11.365Z,4.72
2023-03-14T05:57:37.941Z,4.72
2023-03-14T06:00:05.514Z,5.60
2023-03-14T06:02:32.169Z,5.90
2023-03-14T06:04:58.784Z,6.50
2023-03-14T06:07:25.373Z,6.80
2023-03-14T06:09:51.960Z,6.93
2023-03-14T06:12:18.595Z,6.57
2023-03-14T06:14:45.217Z,13.10
2023-03-14T06:17:11.796Z,7.75
2023-03-14T06:19:38.380Z,7.40
2023-03-14T06:22:05.051Z,5.95
2023-03-14T06:24:31.622Z,6.97
2023-03-14T06:26:58.242Z,6.10
2023-03-14T06:29:24.855Z,7.57
2023-03-14T06:31:51.444Z,7.10
2023-03-14T06:34:18.172Z,6.45
2023-03-14T06:36:44.817Z,5.30
2023-03-14T06:39:11.384Z,5.22
2023-03-14T06:41:38.016Z,7.20
2023-03-14T06:44:04.805Z,7.22
2023-03-14T06:46:31.436Z,6.60
2023-03-14T06:48:58.119Z,5.32
2023-03-14T06:51:24.718Z,6.12
2023-03-14T06:53:51.378Z,5.53
2023-03-14T06:56:17.993Z,6.78
2023-03-14T06:58:47.252Z,7.68
2023-03-14T07:01:21.532Z,8.65
2023-03-14T07:03:48.181Z,6.10
2023-03-14T07:06:14.821Z,6.90
2023-03-14T07:08:42.916Z,6.25
2023-03-14T07:11:11.879Z,6.12
2023-03-14T07:13:39.413Z,6.65
2023-03-14T07:16:06.703Z,5.95
2023-03-14T07:18:33.560Z,6.47
2023-03-14T07:21:00.134Z,5.75
2023-03-14T07:23:26.802Z,7.25
2023-03-14T07:25:54.789Z,6.75
2023-03-14T07:28:21.656Z,5.87
2023-03-14T07:30:48.877Z,7.45
2023-03-14T07:33:15.860Z,6.40
2023-03-14T07:35:42.531Z,6.28
2023-03-14T07:38:09.248Z,6.25
2023-03-14T07:40:35.836Z,6.15
2023-03-14T07:43:02.430Z,5.90
2023-03-14T07:45:29.075Z,5.43
2023-03-14T07:47:58.563Z,6.90
2023-03-14T07:50:26.253Z,7.75
2023-03-14T07:52:53.503Z,10.13
2023-03-14T07:55:20.140Z,8.45
2023-03-14T07:57:46.816Z,13.30
2023-03-14T08:00:16.058Z,12.30
2023-03-14T08:02:43.007Z,6.72
2023-03-14T08:05:10.392Z,9.70
2023-03-14T08:07:37.266Z,9.98
2023-03-14T08:10:04.779Z,8.52
2023-03-14T08:12:31.378Z,6.55
2023-03-14T08:14:58.131Z,6.95
2023-03-14T08:17:25.098Z,11.40
2023-03-14T08:19:52.688Z,10.98
2023-03-14T08:22:20.244Z,9.65
2023-03-14T08:24:47.012Z,7.97
2023-03-14T08:27:15.338Z,6.10
2023-03-14T08:29:43.033Z,6.87
2023-03-14T08:32:09.933Z,7.55
2023-03-14T08:34:36.747Z,5.70
2023-03-14T08:37:06.691Z,9.85
2023-03-14T08:39:38.011Z,7.20
2023-03-14T08:42:04.833Z,6.43
2023-03-14T08:44:31.637Z,10.23
2023-03-14T08:46:58.352Z,7.82
2023-03-14T08:49:25.588Z,6.55
2023-03-14T08:51:52.252Z,7.82
2023-03-14T08:54:19.745Z,6.68
2023-03-14T08:56:47.601Z,7.35
2023-03-14T08:59:14.301Z,8.05
2023-03-14T09:01:41.175Z,6.12
2023-03-14T09:04:08.029Z,6.50
2023-03-14T09:06:34.781Z,5.45
2023-03-14T09:09:01.432Z,8.80
2023-03-14T09:11:28.135Z,6.30
2023-03-14T09:13:54.750Z,8.30
2023-03-14T09:16:21.344Z,6.68
2023-03-14T09:18:48.037Z,7.28
2023-03-14T09:21:15.358Z,9.00
2023-03-14T09:23:42.108Z,7.87
2023-03-14T09:26:08.899Z,6.25
2023-03-14T09:28:35.611Z,9.95
2023-03-14T09:31:12.002Z,5.55
2023-03-14T09:33:38.652Z,7.37
2023-03-14T09:36:05.712Z,6.87
2023-03-14T09:38:34.030Z,8.40
2023-03-14T09:41:01.882Z,5.87
2023-03-14T09:43:30.644Z,7.28
2023-03-14T09:45:57.403Z,7.45
2023-03-14T09:48:29.066Z,7.62
2023-03-14T09:50:56.367Z,5.82
2023-03-14T09:53:26.928Z,6.55
2023-03-14T09:55:54.331Z,5.90
2023-03-14T09:58:21.707Z,6.00
2023-03-14T10:00:48.561Z,7.60
2023-03-14T10:03:15.044Z,6.20
2023-03-14T10:05:42.412Z,8.27
2023-03-14T10:08:13.088Z,5.50
2023-03-14T10:10:39.759Z,5.82
2023-03-14T10:13:16.065Z,7.12
2023-03-14T10:15:42.793Z,6.05
2023-03-14T10:18:13.828Z,6.03
2023-03-14T10:20:42.829Z,8.68
2023-03-14T10:23:12.372Z,5.00
2023-03-14T10:25:46.169Z,6.87
2023-03-14T10:28:23.816Z,6.45
2023-03-14T10:30:50.522Z,6.53
2023-03-14T10:33:24.267Z,8.45
2023-03-14T10:36:00.273Z,10.15
2023-03-14T10:38:28.833Z,4.35
2023-03-14T10:40:55.885Z,6.82
2023-03-14T10:43:28.167Z,8.35
2023-03-14T10:46:18.279Z,5.78
2023-03-14T10:48:46.784Z,8.35
2023-03-14T10:51:32.374Z,5.68
2023-03-14T10:54:14.117Z,6.32
2023-03-14T10:56:40.779Z,7.25
2023-03-14T10:59:16.462Z,9.18
2023-03-14T11:01:56.980Z,6.85
2023-03-14T11:04:44.805Z,6.72
2023-03-14T11:07:44.841Z,5.47
2023-03-14T11:10:20.642Z,5.18
2023-03-14T11:13:08.007Z,5.70
2023-03-14T11:15:43.552Z,6.60
2023-03-14T11:18:25.116Z,6.22
2023-03-14T11:20:56.169Z,3.80
2023-03-14T11:23:23.812Z,7.30
2023-03-14T11:25:56.507Z,5.65
2023-03-14T11:28:39.855Z,6.12
2023-03-14T11:31:21.632Z,7.43
2023-03-14T11:33:50.362Z,5.50
2023-03-14T11:36:38.933Z,5.10
2023-03-14T11:39:13.316Z,5.18
2023-03-14T11:41:41.743Z,8.70
2023-03-14T11:44:21.776Z,5.32
2023-03-14T11:46:56.190Z,5.32
2023-03-14T11:49:25.888Z,4.35
2023-03-14T11:51:55.002Z,3.97
2023-03-14T11:54:40.337Z,4.37
2023-03-14T11:57:12.626Z,4.90
2023-03-14T11:59:57.460Z,3.67
2023-03-14T12:02:39.223Z,4.10
2023-03-14T12:05:27.006Z,3.40
2023-03-14T12:08:08.693Z,4.70
2023-03-14T12:10:44.347Z,6.55
2023-03-14T12:13:11.920Z,4.70
2023-03-14T12:15:47.424Z,5.60
2023-03-14T12:18:34.155Z,4.53
2023-03-14T12:21:05.713Z,4.50
2023-03-14T12:23:48.705Z,5.82
2023-03-14T12:26:20.758Z,3.37
2023-03-14T12:28:52.275Z,4.18
2023-03-14T12:31:31.536Z,5.95
2023-03-14T12:34:20.846Z,4.28
2023-03-14T12:36:50.591Z,5.55
2023-03-14T12:39:43.737Z,5.05
2023-03-14T12:42:17.961Z,7.70
2023-03-14T12:44:46.194Z,5.25
2023-03-14T12:47:21.495Z,6.03
2023-03-14T12:49:51.648Z,4.70
2023-03-14T12:52:21.304Z,4.57
2023-03-14T12:55:23.682Z,5.12
2023-03-14T12:58:28.289Z,6.37
2023-03-14T13:01:00.706Z,3.28
2023-03-14T13:03:29.875Z,4.45
2023-03-14T13:06:00.779Z,5.00
2023-03-14T13:08:36.033Z,3.95
2023-03-14T13:11:03.922Z,4.50
2023-03-14T13:13:30.497Z,2.60
2023-03-14T13:15:59.511Z,3.58
2023-03-14T13:18:36.732Z,3.42
2023-03-14T13:21:23.021Z,3.53
2023-03-14T13:26:43.908Z,4.68
2023-03-14T13:29:17.833Z,3.35
2023-03-14T13:31:45.934Z,2.75
2023-03-14T13:34:13.263Z,3.95
2023-03-14T13:36:39.925Z,3.15
2023-03-14T13:39:14.218Z,4.93
2023-03-14T13:41:41.609Z,4.93
2023-03-14T13:44:09.559Z,2.95
2023-03-14T13:46:36.521Z,7.28
2023-03-14T13:49:04.563Z,5.90
2023-03-14T13:51:33.714Z,4.90
2023-03-14T13:54:00.722Z,3.58
2023-03-14T13:56:32.990Z,3.33
2023-03-14T13:58:59.932Z,6.78
2023-03-14T14:01:34.404Z,3.15
2023-03-14T14:04:09.087Z,2.95
2023-03-14T14:06:37.579Z,3.90
2023-03-14T14:09:13.450Z,3.58
2023-03-14T14:14:26.951Z,3.92
2023-03-14T14:16:53.828Z,2.83
2023-03-14T14:19:20.581Z,4.12
2023-03-14T14:21:47.157Z,3.75
2023-03-14T14:24:15.689Z,5.53
2023-03-14T14:26:53.048Z,5.00
2023-03-14T14:29:37.846Z,3.83
2023-03-14T14:32:14.581Z,3.17
2023-03-14T14:34:43.589Z,3.37
2023-03-14T14:37:26.327Z,4.95
2023-03-14T14:39:56.448Z,2.53
2023-03-14T14:42:25.367Z,3.22
2023-03-14T14:44:52.508Z,3.87
2023-03-14T14:47:21.130Z,5.25
2023-03-14T14:49:52.180Z,3.30
2023-03-14T14:52:20.775Z,2.30
2023-03-14T14:54:58.128Z,3.75
2023-03-14T14:57:38.759Z,3.60
2023-03-14T15:00:14.336Z,3.15
2023-03-14T15:02:46.493Z,2.60
2023-03-14T15:05:17.460Z,4.45
2023-03-14T15:07:44.062Z,3.17
2023-03-14T15:10:15.699Z,4.45
2023-03-14T15:12:42.273Z,4.22
2023-03-14T15:15:09.789Z,3.70
2023-03-14T15:17:37.219Z,4.35
2023-03-14T15:20:07.967Z,3.20
2023-03-14T15:22:34.616Z,3.97
2023-03-14T15:25:01.239Z,3.53
2023-03-14T15:27:27.844Z,3.15
2023-03-14T15:29:56.551Z,2.67
2023-03-14T15:32:23.240Z,3.80
2023-03-14T15:34:49.963Z,3.37
2023-03-14T15:37:17.067Z,4.60
2023-03-14T15:39:44.217Z,4.90
2023-03-14T15:42:11.247Z,6.70
2023-03-14T15:44:37.892Z,3.17
2023-03-14T15:47:04.671Z,3.20
2023-03-14T15:49:31.281Z,5.10
2023-03-14T15:51:58.312Z,4.87
2023-03-14T15:54:29.296Z,3.22
2023-03-14T15:56:56.733Z,3.97
2023-03-14T15:59:24.179Z,3.15
2023-03-14T16:01:50.986Z,4.43
2023-03-14T16:04:17.845Z,2.65
2023-03-14T16:06:45.578Z,3.00
2023-03-14T16:09:15.323Z,3.40
2023-03-14T16:11:41.873Z,4.87
2023-03-14T16:14:08.531Z,5.25
2023-03-14T16:16:35.152Z,2.40
2023-03-14T16:19:03.031Z,3.83
2023-03-14T16:21:29.859Z,3.22
2023-03-14T16:23:56.462Z,5.57
2023-03-14T16:26:23.241Z,3.50
2023-03-14T16:28:50.040Z,2.28
2023-03-14T16:31:18.524Z,4.85
2023-03-14T16:33:45.189Z,2.40
2023-03-14T16:36:12.559Z,3.78
2023-03-14T16:38:40.561Z,3.12
2023-03-14T16:41:07.047Z,3.67
2023-03-14T16:43:34.038Z,3.55
2023-03-14T16:46:00.998Z,2.95
2023-03-14T16:48:28.087Z,1.98
2023-03-14T16:50:54.777Z,4.60
2023-03-14T16:53:21.629Z,2.28
2023-03-14T16:55:48.597Z,2.90
2023-03-14T16:58:15.250Z,3.87
2023-03-14T17:00:42.011Z,3.87
2023-03-14T17:03:08.629Z,4.18
2023-03-14T17:05:35.267Z,3.78
2023-03-14T17:08:01.852Z,2.67
2023-03-14T17:10:28.482Z,3.17
2023-03-14T17:12:55.121Z,2.97
2023-03-14T17:15:21.781Z,3.35
2023-03-14T17:17:48.416Z,2.58
2023-03-14T17:20:15.052Z,2.75
2023-03-14T17:22:41.626Z,4.57
2023-03-14T17:25:08.468Z,2.25
2023-03-14T17:27:36.164Z,3.70
2023-03-14T17:30:04.644Z,3.83
2023-03-14T17:32:31.292Z,3.37
2023-03-14T17:34:58.046Z,3.22
2023-03-14T17:37:24.803Z,2.60
2023-03-14T17:39:51.403Z,2.80
2023-03-14T17:42:18.123Z,2.92
2023-03-14T17:44:46.129Z,3.12
2023-03-14T17:47:12.845Z,2.83
2023-03-14T17:49:41.795Z,2.83
2023-03-14T17:52:12.714Z,3.10
2023-03-14T17:54:39.660Z,2.22
2023-03-14T17:57:06.346Z,2.97
2023-03-14T17:59:33.129Z,2.67
2023-03-14T18:02:01.014Z,1.92
2023-03-14T18:04:27.708Z,2.80
2023-03-14T18:06:54.445Z,2.58
2023-03-14T18:09:21.895Z,2.35
2023-03-14T18:11:51.526Z,3.42
2023-03-14T18:14:21.094Z,2.20
2023-03-14T18:16:49.652Z,2.45
2023-03-14T18:19:16.715Z,2.47
2023-03-14T18:21:44.324Z,3.72
2023-03-14T18:24:11.373Z,3.90
2023-03-14T18:26:38.095Z,1.92
2023-03-14T18:29:04.669Z,2.22
2023-03-14T18:31:34.943Z,3.28
2023-03-14T18:34:01.828Z,3.47
2023-03-14T18:36:28.628Z,2.58
2023-03-14T18:38:56.775Z,2.78
2023-03-14T18:41:23.624Z,3.37
2023-03-14T18:43:50.369Z,2.92
2023-03-14T18:46:17.312Z,2.45
2023-03-14T18:48:43.956Z,3.50
2023-03-14T18:51:15.355Z,2.28
2023-03-14T18:53:42.710Z,2.85
2023-03-14T18:56:12.793Z,2.30
2023-03-14T18:58:40.444Z,2.17
2023-03-14T19:01:07.179Z,1.65
2023-03-14T19:03:34.762Z,2.20
2023-03-14T19:06:01.393Z,2.20
2023-03-14T19:08:28.300Z,3.30
2023-03-14T19:10:56.268Z,2.40
2023-03-14T19:13:22.950Z,3.08
2023-03-14T19:15:49.562Z,3.08
2023-03-14T19:18:16.228Z,2.85
2023-03-14T19:20:43.295Z,1.98
2023-03-14T19:23:09.996Z,2.47
2023-03-14T19:25:36.640Z,2.00
2023-03-14T19:28:03.285Z,2.37
2023-03-14T19:30:30.291Z,2.42
2023-03-14T19:32:57.002Z,2.22
2023-03-14T19:35:23.847Z,3.33
2023-03-14T19:37:50.553Z,2.28
2023-03-14T19:40:17.487Z,2.45
2023-03-14T19:42:44.891Z,2.25
2023-03-14T19:45:11.829Z,2.83
2023-03-14T19:47:38.424Z,2.00
2023-03-14T19:50:05.277Z,2.35
2023-03-14T19:52:32.056Z,2.85
2023-03-14T19:54:58.657Z,3.03
2023-03-14T19:57:25.385Z,2.45
2023-03-14T19:59:51.975Z,2.87
2023-03-14T20:02:18.684Z,3.78
2023-03-14T20:04:46.591Z,2.53
2023-03-14T20:07:13.707Z,1.75
2023-03-14T20:09:40.803Z,2.35
2023-03-14T20:12:08.408Z,2.17
2023-03-14T20:14:35.241Z,1.87
2023-03-14T20:17:01.858Z,1.85
2023-03-14T20:19:28.530Z,2.67
2023-03-14T20:21:55.166Z,3.03
2023-03-14T20:24:21.796Z,2.58
2023-03-14T20:26:48.470Z,3.17
2023-03-14T20:29:15.439Z,2.37
2023-03-14T20:31:42.725Z,2.58
2023-03-14T20:34:09.379Z,2.03
2023-03-14T20:36:36.081Z,2.37
2023-03-14T20:39:02.802Z,2.55
2023-03-14T20:41:29.452Z,3.62
2023-03-14T20:43:56.023Z,2.03
2023-03-14T20:46:22.693Z,1.67
2023-03-14T20:48:49.423Z,2.40
2023-03-14T20:51:16.011Z,2.60
2023-03-14T20:53:42.644Z,1.62
2023-03-14T20:56:09.211Z,3.30
2023-03-14T20:58:35.889Z,1.92
2023-03-14T21:01:17.675Z,1.60
2023-03-14T21:03:44.299Z,3.95
2023-03-14T21:06:11.603Z,3.28
2023-03-14T21:08:39.430Z,3.37
2023-03-14T21:11:06.135Z,2.30
2023-03-14T21:13:33.563Z,2.50
2023-03-14T21:16:01.610Z,2.30
2023-03-14T21:18:28.340Z,2.15
2023-03-14T21:20:55.149Z,2.03
2023-03-14T21:23:26.688Z,2.12
2023-03-14T21:25:54.316Z,3.10
2023-03-14T21:28:20.886Z,1.67
2023-03-14T21:30:47.610Z,1.87
2023-03-14T21:33:15.467Z,1.37
2023-03-14T21:35:42.473Z,1.67
2023-03-14T21:38:09.120Z,1.98
2023-03-14T21:40:37.111Z,1.95
2023-03-14T21:43:04.159Z,2.28
2023-03-14T21:45:30.803Z,1.87
2023-03-14T21:47:57.977Z,2.10
2023-03-14T21:50:25.667Z,1.95
2023-03-14T21:52:56.492Z,1.42
2023-03-14T21:55:25.193Z,1.85
2023-03-14T21:57:52.373Z,2.12
2023-03-14T22:00:22.747Z,1.98
2023-03-14T22:03:11.038Z,2.20
2023-03-14T22:05:36.576Z,1.65
2023-03-14T22:08:03.164Z,2.05
2023-03-14T22:10:29.731Z,2.10
2023-03-14T22:12:57.769Z,3.08
2023-03-14T22:15:24.410Z,1.92
2023-03-14T22:17:51.308Z,2.72
2023-03-14T22:20:17.962Z,2.65
2023-03-14T22:22:44.518Z,1.65
2023-03-14T22:25:11.146Z,2.05
2023-03-14T22:27:37.781Z,2.33
2023-03-14T22:30:04.782Z,1.75
2023-03-14T22:32:31.386Z,1.80
2023-03-14T22:34:57.982Z,1.75
2023-03-14T22:37:25.548Z,1.90
2023-03-14T22:39:52.158Z,2.28
2023-03-14T22:42:18.769Z,3.12
2023-03-14T22:44:45.415Z,1.87
2023-03-14T22:47:11.981Z,2.62
2023-03-14T22:49:38.645Z,1.85
2023-03-14T22:52:05.437Z,1.80
2023-03-14T22:54:32.015Z,1.77
2023-03-14T22:56:58.597Z,2.08
2023-03-14T22:59:25.244Z,2.67
2023-03-14T23:01:51.846Z,1.90
2023-03-14T23:04:18.440Z,2.83
2023-03-14T23:06:45.011Z,1.87
2023-03-14T23:09:12.098Z,3.37
2023-03-14T23:11:39.693Z,1.90
2023-03-14T23:14:06.445Z,2.08
2023-03-14T23:16:39.800Z,2.03
2023-03-14T23:19:07.071Z,2.33
2023-03-14T23:21:33.636Z,1.37
2023-03-14T23:24:00.268Z,1.35
2023-03-14T23:26:27.397Z,1.90
2023-03-14T23:28:56.727Z,2.25
2023-03-14T23:31:23.391Z,2.00
2023-03-14T23:33:50.337Z,3.03
2023-03-14T23:36:18.426Z,1.58
2023-03-14T23:38:45.338Z,1.92
2023-03-14T23:41:15.045Z,1.67
2023-03-14T23:43:43.068Z,1.50
2023-03-14T23:46:09.898Z,1.90
2023-03-14T23:48:36.518Z,1.83
2023-03-14T23:51:04.359Z,2.65
2023-03-14T23:53:31.208Z,1.67
2023-03-14T23:55:57.914Z,1.67
2023-03-14T23:58:24.680Z,1.75
